Time;durP1;ratioP1;P1;durP2;ratioP2;P2;SDS_P1;SDS_P2;PMS_P1;PMS_P2;Temp;Humidity;BMP_temperature;BMP_pressure;BME280_temperature;BME280_humidity;BME280_pressure;Samples;Min_cycle;Max_cycle;Signal;HPM_P1;HPM_P2
2022/01/05 00:00:15;;;;;;;4.30;2.33;;;5.60;99.90;;;;;;5057060;28;20181;-70
2022/01/05 00:02:45;;;;;;;3.03;2.13;;;5.50;99.90;;;;;;5059291;28;20267;-69
2022/01/05 00:05:15;;;;;;;4.83;2.40;;;5.50;99.90;;;;;;5058537;28;20203;-68
2022/01/05 00:07:41;;;;;;;4.97;2.20;;;5.50;99.90;;;;;;5057174;28;20185;-69
2022/01/05 00:10:09;;;;;;;3.97;1.80;;;5.40;99.90;;;;;;5062563;28;20195;-69
2022/01/05 00:12:35;;;;;;;3.97;2.40;;;5.40;99.90;;;;;;5060268;28;20184;-69
2022/01/05 00:15:10;;;;;;;6.97;2.57;;;5.30;99.90;;;;;;5055252;28;20295;-68
2022/01/05 00:17:36;;;;;;;5.77;2.87;;;5.30;99.90;;;;;;5055097;28;20283;-67
2022/01/05 00:20:05;;;;;;;5.00;2.03;;;5.30;99.90;;;;;;5059412;28;20267;-67
2022/01/05 00:22:33;;;;;;;4.13;1.83;;;5.20;99.90;;;;;;5055332;28;20180;-68
2022/01/05 00:24:58;;;;;;;4.07;1.80;;;5.20;99.90;;;;;;5057787;28;20215;-68
2022/01/05 00:27:24;;;;;;;3.87;2.07;;;5.10;99.90;;;;;;5059511;28;20204;-68
2022/01/05 00:29:50;;;;;;;2.90;1.87;;;5.10;99.90;;;;;;5055950;28;20205;-69
2022/01/05 00:32:16;;;;;;;3.17;1.90;;;5.10;99.90;;;;;;5058688;28;20176;-68
2022/01/05 00:34:41;;;;;;;2.97;1.83;;;5.00;99.90;;;;;;5058452;28;20300;-68
2022/01/05 00:37:07;;;;;;;5.83;2.10;;;4.90;99.90;;;;;;5056421;28;20204;-69
2022/01/05 00:39:32;;;;;;;3.33;1.80;;;4.80;99.90;;;;;;5057132;28;20168;-68
2022/01/05 00:41:58;;;;;;;2.33;1.60;;;4.70;99.90;;;;;;5060261;28;20188;-69
2022/01/05 00:44:26;;;;;;;2.90;1.50;;;4.70;99.90;;;;;;5059878;28;20212;-68
2022/01/05 00:46:52;;;;;;;3.20;1.67;;;4.60;99.90;;;;;;5060135;28;20225;-68
2022/01/05 00:49:18;;;;;;;3.00;1.87;;;4.60;99.90;;;;;;5058180;28;20238;-67
2022/01/05 00:51:46;;;;;;;3.17;1.70;;;4.50;99.90;;;;;;5055351;28;20201;-68
2022/01/05 00:54:12;;;;;;;2.23;1.60;;;4.50;99.90;;;;;;5056005;28;20200;-69
2022/01/05 00:56:40;;;;;;;2.97;1.70;;;4.40;99.90;;;;;;5058236;28;20267;-69
2022/01/05 00:59:06;;;;;;;2.50;2.07;;;4.40;99.90;;;;;;5074599;28;20279;-69
2022/01/05 01:01:36;;;;;;;2.30;2.00;;;4.40;99.90;;;;;;5089864;28;20397;-69
2022/01/05 01:04:03;;;;;;;4.50;2.00;;;4.40;99.90;;;;;;5058662;28;20275;-69
2022/01/05 01:06:28;;;;;;;4.07;2.03;;;4.30;99.90;;;;;;5050987;28;20191;-68
2022/01/05 01:08:56;;;;;;;3.83;2.20;;;4.30;99.90;;;;;;5061368;28;20271;-69
2022/01/05 01:11:22;;;;;;;5.07;2.80;;;4.30;99.90;;;;;;5053699;28;20200;-68
2022/01/05 01:13:48;;;;;;;3.70;2.70;;;4.30;99.90;;;;;;5058929;28;20210;-69
2022/01/05 01:16:14;;;;;;;3.93;2.70;;;4.30;99.90;;;;;;5058352;28;20196;-68
2022/01/05 01:18:40;;;;;;;2.77;2.50;;;4.30;99.90;;;;;;5050503;28;20201;-69
2022/01/05 01:21:05;;;;;;;1.70;1.23;;;4.30;99.90;;;;;;5060881;28;20259;-69
2022/01/05 01:23:31;;;;;;;1.43;1.07;;;4.20;99.90;;;;;;5095564;28;20302;-68
2022/01/05 01:25:57;;;;;;;1.50;0.80;;;4.20;99.90;;;;;;5059499;28;20218;-67
2022/01/05 01:28:24;;;;;;;0.90;0.70;;;4.20;99.90;;;;;;5058071;28;20165;-68
2022/01/05 01:30:49;;;;;;;1.33;0.70;;;4.10;99.90;;;;;;5053807;28;20196;-69
2022/01/05 01:33:15;;;;;;;1.13;0.70;;;4.10;99.90;;;;;;5051721;28;20196;-69
2022/01/05 01:35:43;;;;;;;1.53;0.80;;;4.10;99.90;;;;;;5057590;28;20196;-68
2022/01/05 01:38:11;;;;;;;1.10;0.70;;;4.10;99.90;;;;;;5054444;28;20192;-68
2022/01/05 01:40:36;;;;;;;1.57;0.77;;;4.10;99.90;;;;;;5053725;28;20177;-67
2022/01/05 01:43:05;;;;;;;1.13;0.63;;;4.10;99.90;;;;;;5048632;28;20172;-67
2022/01/05 01:45:30;;;;;;;1.07;0.77;;;4.10;99.90;;;;;;5055379;28;20394;-68
2022/01/05 01:47:56;;;;;;;2.43;1.00;;;4.10;99.90;;;;;;5079663;28;20263;-68
2022/01/05 01:50:22;;;;;;;0.87;0.60;;;4.10;99.90;;;;;;5057491;28;20181;-68
2022/01/05 01:52:47;;;;;;;1.63;1.00;;;4.10;99.90;;;;;;5056565;28;20249;-67
2022/01/05 01:55:13;;;;;;;1.50;0.90;;;4.10;99.90;;;;;;5056079;28;20187;-68
2022/01/05 01:57:42;;;;;;;1.50;1.00;;;4.20;99.90;;;;;;5072158;28;20164;-68
2022/01/05 02:00:09;;;;;;;1.40;0.97;;;4.20;99.90;;;;;;5075014;28;20347;-68
2022/01/05 02:02:36;;;;;;;2.07;0.97;;;4.30;99.90;;;;;;5050771;28;20177;-68
2022/01/05 02:05:04;;;;;;;1.43;0.93;;;4.30;99.90;;;;;;5056545;28;20202;-68
2022/01/05 02:07:32;;;;;;;2.20;1.30;;;4.30;99.90;;;;;;5062368;28;20180;-68
2022/01/05 02:09:57;;;;;;;2.47;1.27;;;4.30;99.90;;;;;;5087585;28;20245;-68
2022/01/05 02:12:27;;;;;;;1.10;0.93;;;4.40;99.90;;;;;;5056253;28;20201;-68
2022/01/05 02:14:54;;;;;;;2.13;1.20;;;4.40;99.90;;;;;;5060571;28;20307;-67
2022/01/05 02:17:30;;;;;;;2.50;1.10;;;4.40;99.90;;;;;;5056356;28;20183;-68
2022/01/05 02:19:56;;;;;;;3.73;1.20;;;4.40;99.90;;;;;;5056875;28;20208;-68
2022/01/05 02:22:21;;;;;;;5.33;1.57;;;4.50;99.90;;;;;;5057848;28;20215;-69
2022/01/05 02:24:47;;;;;;;2.27;1.50;;;4.40;99.90;;;;;;5055682;28;20482;-68
2022/01/05 02:27:15;;;;;;;2.00;1.30;;;4.50;99.90;;;;;;5055011;28;20180;-68
2022/01/05 02:29:41;;;;;;;2.43;1.60;;;4.50;99.90;;;;;;5051742;28;20214;-68
2022/01/05 02:32:09;;;;;;;2.30;1.37;;;4.50;99.90;;;;;;5056001;28;20205;-68
2022/01/05 02:34:35;;;;;;;1.67;1.50;;;4.60;99.90;;;;;;5055253;28;20197;-69
2022/01/05 02:37:00;;;;;;;3.07;1.60;;;4.60;99.90;;;;;;5059024;28;20192;-68
2022/01/05 02:39:26;;;;;;;3.40;1.40;;;4.60;99.90;;;;;;5070169;28;20187;-68
2022/01/05 02:41:56;;;;;;;2.00;1.50;;;4.60;99.90;;;;;;5056378;28;20183;-68
2022/01/05 02:44:24;;;;;;;3.67;2.20;;;4.60;99.90;;;;;;5054654;28;20199;-68
2022/01/05 02:46:52;;;;;;;3.17;2.57;;;4.60;99.90;;;;;;5048330;28;20199;-68
2022/01/05 02:49:17;;;;;;;4.17;2.20;;;4.60;99.90;;;;;;5057640;28;20185;-68
2022/01/05 02:51:43;;;;;;;3.13;2.43;;;4.70;99.90;;;;;;5056571;28;20200;-68
2022/01/05 02:54:09;;;;;;;4.13;2.37;;;4.60;99.90;;;;;;5054669;28;20217;-68
2022/01/05 02:56:34;;;;;;;3.67;2.27;;;4.60;99.90;;;;;;5055954;28;20288;-68
2022/01/05 02:59:04;;;;;;;6.23;2.70;;;4.60;99.90;;;;;;5059449;28;20303;-68
2022/01/05 03:01:31;;;;;;;4.77;2.47;;;4.60;99.90;;;;;;5055290;28;20188;-68
2022/01/05 03:03:56;;;;;;;3.63;2.40;;;4.60;99.90;;;;;;5053512;28;20227;-68
2022/01/05 03:06:24;;;;;;;4.53;2.20;;;4.60;99.90;;;;;;5050705;28;20209;-68
2022/01/05 03:08:54;;;;;;;6.87;2.50;;;4.50;99.90;;;;;;5055732;28;20356;-68
2022/01/05 03:11:20;;;;;;;4.23;2.80;;;4.50;99.90;;;;;;5057180;28;20268;-68
2022/01/05 03:13:46;;;;;;;5.77;2.77;;;4.50;99.90;;;;;;5053083;28;20299;-68
2022/01/05 03:16:14;;;;;;;3.47;2.27;;;4.50;99.90;;;;;;5051228;28;20231;-67
2022/01/05 03:18:41;;;;;;;3.93;2.60;;;4.50;99.90;;;;;;5058043;28;20197;-68
2022/01/05 03:21:09;;;;;;;4.57;2.30;;;4.50;99.90;;;;;;5073229;28;20180;-68
2022/01/05 03:23:37;;;;;;;3.63;2.23;;;4.50;99.90;;;;;;5057101;28;20187;-68
2022/01/05 03:26:03;;;;;;;3.17;1.87;;;4.40;99.90;;;;;;5043126;28;20188;-68
2022/01/05 03:28:30;;;;;;;3.53;2.33;;;4.40;99.90;;;;;;5053315;28;20180;-68
2022/01/05 03:30:56;;;;;;;6.67;2.30;;;4.40;99.90;;;;;;5058475;28;20306;-68
2022/01/05 03:33:27;;;;;;;4.03;2.33;;;4.40;99.90;;;;;;5055483;28;20264;-69
2022/01/05 03:35:54;;;;;;;8.37;3.00;;;4.40;99.90;;;;;;5051259;28;20196;-68
2022/01/05 03:38:20;;;;;;;4.00;2.67;;;4.40;99.90;;;;;;5055150;28;20197;-69
2022/01/05 03:40:48;;;;;;;4.80;2.37;;;4.30;99.90;;;;;;5056506;28;20177;-67
2022/01/05 03:43:13;;;;;;;4.87;2.63;;;4.30;99.90;;;;;;5055401;28;20215;-69
2022/01/05 03:45:42;;;;;;;6.13;2.40;;;4.30;99.90;;;;;;5055692;28;20180;-69
2022/01/05 03:48:10;;;;;;;6.60;2.83;;;4.30;99.90;;;;;;5046359;28;20280;-69
2022/01/05 03:50:36;;;;;;;4.87;2.97;;;4.30;99.90;;;;;;5054653;28;20212;-69
2022/01/05 03:53:04;;;;;;;3.67;2.37;;;4.20;99.90;;;;;;5060572;28;20192;-68
2022/01/05 03:55:30;;;;;;;5.17;3.07;;;4.20;99.90;;;;;;5059343;28;20232;-69
2022/01/05 03:57:58;;;;;;;4.37;2.37;;;4.20;99.90;;;;;;5051041;28;20188;-68
2022/01/05 04:00:24;;;;;;;4.27;2.30;;;4.20;99.90;;;;;;5055505;28;20199;-69
2022/01/05 04:02:50;;;;;;;5.17;2.50;;;4.20;99.90;;;;;;5051724;28;20216;-68
2022/01/05 04:05:18;;;;;;;3.80;2.77;;;4.10;99.90;;;;;;5057018;28;20261;-69
2022/01/05 04:07:47;;;;;;;5.50;3.07;;;4.10;99.90;;;;;;5054915;28;20240;-68
2022/01/05 04:10:12;;;;;;;4.93;2.57;;;4.10;99.90;;;;;;5053940;28;20238;-69
2022/01/05 04:12:40;;;;;;;5.80;3.40;;;4.10;99.90;;;;;;5057914;28;20794;-68
2022/01/05 04:15:06;;;;;;;6.30;3.20;;;4.10;99.90;;;;;;5063099;28;20316;-69
2022/01/05 04:17:32;;;;;;;5.30;2.80;;;4.10;99.90;;;;;;5056435;28;20260;-69
2022/01/05 04:19:58;;;;;;;4.93;2.43;;;4.00;99.90;;;;;;5054786;28;20190;-69
2022/01/05 04:22:26;;;;;;;4.90;2.60;;;4.00;99.90;;;;;;5094174;28;20228;-69
2022/01/05 04:24:56;;;;;;;6.80;2.63;;;4.00;99.90;;;;;;5060430;28;20184;-69
2022/01/05 04:27:22;;;;;;;7.97;2.20;;;4.00;99.90;;;;;;5055310;28;20184;-69
2022/01/05 04:29:47;;;;;;;4.47;2.77;;;4.00;99.90;;;;;;5061230;28;20185;-69
2022/01/05 04:32:16;;;;;;;5.23;2.83;;;4.00;99.90;;;;;;5055797;28;20206;-69
2022/01/05 04:34:43;;;;;;;7.03;3.07;;;4.00;99.90;;;;;;5058803;28;20208;-68
2022/01/05 04:37:12;;;;;;;5.23;2.40;;;4.00;99.90;;;;;;5086467;28;20191;-68
2022/01/05 04:39:40;;;;;;;6.20;2.43;;;3.90;99.90;;;;;;5062653;28;20181;-68
2022/01/05 04:42:05;;;;;;;4.63;2.77;;;4.00;99.90;;;;;;5055615;28;20284;-69
2022/01/05 04:44:31;;;;;;;4.17;2.47;;;3.90;99.90;;;;;;5057535;28;20334;-69
2022/01/05 04:46:57;;;;;;;6.73;2.30;;;3.90;99.90;;;;;;5056670;28;20230;-68
2022/01/05 04:49:25;;;;;;;7.83;2.50;;;3.90;99.90;;;;;;5058142;28;20234;-68
2022/01/05 04:51:51;;;;;;;4.57;2.50;;;3.90;99.90;;;;;;5057474;28;20185;-68
2022/01/05 04:54:20;;;;;;;7.47;2.70;;;3.90;99.90;;;;;;5051232;28;20201;-69
2022/01/05 04:56:46;;;;;;;6.93;3.10;;;3.80;99.90;;;;;;5051773;28;20183;-69
2022/01/05 04:59:11;;;;;;;4.40;2.67;;;3.80;99.90;;;;;;5057998;28;20526;-69
2022/01/05 05:01:39;;;;;;;9.03;2.70;;;3.80;99.90;;;;;;5058762;28;20207;-68
2022/01/05 05:04:07;;;;;;;4.50;1.97;;;3.80;99.90;;;;;;5059412;28;20211;-69
2022/01/05 05:06:35;;;;;;;4.70;2.37;;;3.80;99.90;;;;;;5057025;28;20180;-69
2022/01/05 05:09:01;;;;;;;4.87;2.40;;;3.80;99.90;;;;;;5056348;28;20213;-67
2022/01/05 05:11:26;;;;;;;6.13;2.60;;;3.80;99.90;;;;;;5057649;28;20245;-69
2022/01/05 05:13:57;;;;;;;4.10;1.93;;;3.80;99.90;;;;;;5057176;28;20348;-69
2022/01/05 05:16:23;;;;;;;6.50;2.50;;;3.80;99.90;;;;;;5061758;28;20183;-68
2022/01/05 05:18:48;;;;;;;4.60;2.20;;;3.80;99.90;;;;;;5061121;28;20188;-69
2022/01/05 05:21:14;;;;;;;6.80;2.73;;;3.80;99.90;;;;;;5056867;28;20338;-69
2022/01/05 05:23:40;;;;;;;4.43;2.40;;;3.80;99.90;;;;;;5056130;28;20268;-67
2022/01/05 05:26:10;;;;;;;6.87;2.87;;;3.80;99.90;;;;;;5059590;28;20340;-68
2022/01/05 05:28:36;;;;;;;5.47;2.50;;;3.80;99.90;;;;;;5076274;28;20544;-69
2022/01/05 05:31:06;;;;;;;6.40;2.30;;;3.80;99.90;;;;;;5058420;28;20192;-68
2022/01/05 05:33:37;;;;;;;7.97;2.60;;;3.80;99.90;;;;;;5052058;28;20204;-68
2022/01/05 05:36:05;;;;;;;3.67;2.20;;;3.80;99.90;;;;;;5066028;28;20196;-69
2022/01/05 05:38:35;;;;;;;4.67;2.60;;;3.80;99.90;;;;;;5077770;28;20180;-68
2022/01/05 05:41:00;;;;;;;4.87;2.33;;;3.70;99.90;;;;;;5059447;28;20290;-68
2022/01/05 05:43:28;;;;;;;4.07;2.20;;;3.70;99.90;;;;;;5089645;28;20191;-68
2022/01/05 05:45:56;;;;;;;6.90;2.20;;;3.70;99.90;;;;;;5057627;28;20271;-69
2022/01/05 05:48:24;;;;;;;4.87;2.20;;;3.70;99.90;;;;;;5085864;28;20204;-68
2022/01/05 05:50:52;;;;;;;6.40;2.13;;;3.70;99.90;;;;;;5087627;28;20489;-68
2022/01/05 05:53:17;;;;;;;5.47;2.20;;;3.70;99.90;;;;;;5054465;28;20246;-69
2022/01/05 05:55:43;;;;;;;5.57;1.90;;;3.70;99.90;;;;;;5091717;28;20235;-69
2022/01/05 05:58:08;;;;;;;5.83;2.10;;;3.70;99.90;;;;;;5078685;28;20180;-67
2022/01/05 06:00:34;;;;;;;9.47;2.43;;;3.70;99.90;;;;;;5056820;28;20246;-69
2022/01/05 06:03:01;;;;;;;6.70;2.10;;;3.70;99.90;;;;;;5086781;28;20209;-69
2022/01/05 06:05:27;;;;;;;7.27;2.40;;;3.60;99.90;;;;;;5057137;28;20198;-68
2022/01/05 06:07:55;;;;;;;8.40;2.17;;;3.60;99.90;;;;;;5054783;28;20188;-67
2022/01/05 06:10:22;;;;;;;7.83;2.27;;;3.60;99.90;;;;;;5055369;28;20199;-69
2022/01/05 06:12:48;;;;;;;6.63;2.10;;;3.60;99.90;;;;;;5078520;28;20204;-69
2022/01/05 06:15:21;;;;;;;5.73;2.27;;;3.60;99.90;;;;;;5056893;28;20208;-68
2022/01/05 06:17:46;;;;;;;9.00;2.57;;;3.60;99.90;;;;;;5064859;28;20188;-69
2022/01/05 06:20:15;;;;;;;6.80;2.10;;;3.60;99.90;;;;;;5055029;28;20233;-69
2022/01/05 06:22:42;;;;;;;5.70;2.40;;;3.60;99.90;;;;;;5048630;28;20814;-69
2022/01/05 06:25:09;;;;;;;6.73;2.17;;;3.60;99.90;;;;;;5058343;28;20192;-69
2022/01/05 06:27:39;;;;;;;5.20;2.07;;;3.60;99.90;;;;;;5087153;28;20247;-69
2022/01/05 06:30:08;;;;;;;6.73;2.20;;;3.60;99.90;;;;;;5065150;28;20197;-69
2022/01/05 06:32:52;;;;;;;7.60;2.07;;;3.60;99.90;;;;;;5055825;28;20189;-69
2022/01/05 06:35:23;;;;;;;5.17;1.80;;;3.60;99.90;;;;;;5057035;28;20196;-69
2022/01/05 06:37:50;;;;;;;5.20;2.00;;;3.60;99.90;;;;;;5054724;28;20192;-69
2022/01/05 06:40:17;;;;;;;6.63;1.70;;;3.60;99.90;;;;;;5056326;28;20175;-69
2022/01/05 06:42:43;;;;;;;4.67;1.70;;;3.60;99.90;;;;;;5054160;28;20196;-69
2022/01/05 06:45:09;;;;;;;6.97;1.80;;;3.60;99.90;;;;;;5053056;28;20212;-72
2022/01/05 06:47:35;;;;;;;5.50;1.90;;;3.60;99.90;;;;;;5061898;28;20242;-74
2022/01/05 06:50:00;;;;;;;8.43;2.10;;;3.50;99.90;;;;;;5058698;28;20466;-72
2022/01/05 06:52:28;;;;;;;6.20;1.90;;;3.50;99.90;;;;;;5056010;28;20215;-74
2022/01/05 06:54:56;;;;;;;5.57;1.70;;;3.50;99.90;;;;;;5051214;28;20204;-64
2022/01/05 06:57:24;;;;;;;4.07;1.70;;;3.50;99.90;;;;;;5053177;28;20205;-73
2022/01/05 06:59:50;;;;;;;4.90;1.73;;;3.50;99.90;;;;;;5040183;28;20181;-72
2022/01/05 07:02:18;;;;;;;6.27;2.27;;;3.50;99.90;;;;;;5055730;28;20203;-74
2022/01/05 07:04:46;;;;;;;5.60;1.80;;;3.50;99.90;;;;;;5053658;28;20188;-73
2022/01/05 07:07:12;;;;;;;3.73;1.67;;;3.60;99.90;;;;;;5087458;28;20181;-72
2022/01/05 07:09:38;;;;;;;6.23;1.70;;;3.60;99.90;;;;;;5065990;28;20279;-73
2022/01/05 07:12:06;;;;;;;4.50;1.93;;;3.60;99.90;;;;;;5054300;28;20250;-72
2022/01/05 07:14:32;;;;;;;6.07;2.00;;;3.60;99.90;;;;;;5058006;28;21778;-74
2022/01/05 07:16:58;;;;;;;4.63;2.10;;;3.70;99.90;;;;;;5055847;28;20257;-72
2022/01/05 07:19:25;;;;;;;8.07;2.07;;;3.70;99.90;;;;;;5074094;28;20172;-74
2022/01/05 07:21:56;;;;;;;4.67;1.80;;;3.70;99.90;;;;;;5054693;28;20197;-73
2022/01/05 07:24:21;;;;;;;4.27;2.03;;;3.80;99.90;;;;;;5055622;28;20264;-73
2022/01/05 07:26:48;;;;;;;6.93;2.33;;;3.80;99.90;;;;;;5051626;28;20236;-75
2022/01/05 07:29:15;;;;;;;5.77;1.83;;;3.80;99.90;;;;;;5056919;28;20258;-73
2022/01/05 07:31:41;;;;;;;4.43;2.07;;;3.80;99.90;;;;;;5059542;28;20296;-72
2022/01/05 07:34:07;;;;;;;5.27;1.97;;;3.80;99.90;;;;;;5059005;28;20201;-73
2022/01/05 07:36:33;;;;;;;5.93;2.07;;;3.90;99.90;;;;;;5051718;28;20201;-74
2022/01/05 07:38:59;;;;;;;6.67;2.13;;;3.90;99.90;;;;;;5056882;28;20200;-73
2022/01/05 07:41:28;;;;;;;6.80;1.90;;;3.90;99.90;;;;;;5053441;28;20173;-72
2022/01/05 07:43:54;;;;;;;7.40;1.90;;;3.90;99.90;;;;;;5058541;28;20183;-74
2022/01/05 07:46:21;;;;;;;7.03;2.17;;;4.00;99.90;;;;;;5057144;28;20184;-73
2022/01/05 07:48:47;;;;;;;4.70;2.00;;;4.00;99.90;;;;;;5063658;28;20205;-74
2022/01/05 07:51:13;;;;;;;6.07;1.93;;;4.00;99.90;;;;;;5058967;28;20256;-74
2022/01/05 07:53:42;;;;;;;6.60;1.80;;;4.00;99.90;;;;;;5044530;28;20345;-74
2022/01/05 07:56:08;;;;;;;9.93;2.30;;;4.10;99.90;;;;;;5059888;28;20234;-73
2022/01/05 07:58:37;;;;;;;8.13;2.07;;;4.10;99.90;;;;;;5060106;28;20169;-73
2022/01/05 08:01:04;;;;;;;8.57;2.07;;;4.10;99.90;;;;;;5058622;28;20200;-75
2022/01/05 08:03:33;;;;;;;5.70;2.43;;;4.10;99.90;;;;;;5059126;28;20189;-75
2022/01/05 08:06:02;;;;;;;8.17;2.47;;;4.20;99.90;;;;;;5057004;28;20204;-78
2022/01/05 08:08:28;;;;;;;6.33;2.40;;;4.20;99.90;;;;;;5087261;28;20180;-78
2022/01/05 08:10:57;;;;;;;8.50;2.40;;;4.20;99.90;;;;;;5062736;28;20326;-78
2022/01/05 08:13:25;;;;;;;8.73;3.03;;;4.30;99.90;;;;;;5060439;28;20277;-78
2022/01/05 08:15:51;;;;;;;9.93;2.93;;;4.30;99.90;;;;;;5067249;28;20177;-77
2022/01/05 08:18:22;;;;;;;7.67;2.47;;;4.40;99.90;;;;;;5055300;28;20196;-79
2022/01/05 08:20:48;;;;;;;6.33;2.40;;;4.40;99.90;;;;;;5058411;28;20184;-77
2022/01/05 08:23:19;;;;;;;8.07;3.00;;;4.40;99.90;;;;;;5058116;28;20173;-79
2022/01/05 08:25:45;;;;;;;5.97;2.57;;;4.50;99.90;;;;;;5059509;28;20236;-79
2022/01/05 08:28:11;;;;;;;8.30;2.50;;;4.50;99.90;;;;;;5057554;28;20251;-78
2022/01/05 08:30:38;;;;;;;7.60;2.53;;;4.60;99.90;;;;;;5051487;28;20230;-80
2022/01/05 08:33:04;;;;;;;6.73;2.00;;;4.60;99.90;;;;;;5063243;28;20193;-76
2022/01/05 08:35:31;;;;;;;5.57;2.33;;;4.60;99.90;;;;;;5059352;28;20180;-77
2022/01/05 08:37:57;;;;;;;7.30;2.87;;;4.70;99.90;;;;;;5065162;28;20263;-79
2022/01/05 08:40:25;;;;;;;8.63;2.70;;;4.70;99.90;;;;;;5061541;28;20192;-77
2022/01/05 08:42:54;;;;;;;5.80;2.37;;;4.80;99.90;;;;;;5051352;28;20212;-79
2022/01/05 08:45:23;;;;;;;7.93;2.87;;;4.80;99.90;;;;;;5058123;28;20168;-79
2022/01/05 08:47:53;;;;;;;5.90;2.07;;;4.80;99.90;;;;;;5050440;28;20237;-76
2022/01/05 08:50:24;;;;;;;7.77;2.37;;;4.90;99.90;;;;;;5091874;28;20207;-79
2022/01/05 08:52:51;;;;;;;5.43;2.00;;;4.90;99.90;;;;;;5060383;28;20195;-78
2022/01/05 08:55:18;;;;;;;10.33;2.40;;;4.90;99.90;;;;;;5090904;28;20234;-76
2022/01/05 08:57:44;;;;;;;5.33;2.27;;;4.90;99.90;;;;;;5062642;28;20168;-78
2022/01/05 09:00:13;;;;;;;6.43;2.00;;;5.00;99.90;;;;;;5093760;28;20175;-72
2022/01/05 09:02:39;;;;;;;7.80;2.57;;;5.00;99.90;;;;;;5058795;28;20192;-78
2022/01/05 09:05:06;;;;;;;7.33;2.57;;;5.10;99.90;;;;;;5061980;28;20184;-78
2022/01/05 09:07:32;;;;;;;9.33;2.77;;;5.10;99.90;;;;;;5058352;28;20178;-78
2022/01/05 09:10:00;;;;;;;6.10;2.27;;;5.10;99.90;;;;;;5056298;28;20263;-79
2022/01/05 09:12:25;;;;;;;5.50;2.07;;;5.20;99.90;;;;;;5059776;28;20172;-73
2022/01/05 09:14:51;;;;;;;4.07;1.90;;;5.20;99.90;;;;;;5051977;28;20332;-79
2022/01/05 09:17:16;;;;;;;6.37;1.83;;;5.20;99.90;;;;;;5057705;28;20184;-74
2022/01/05 09:19:42;;;;;;;4.47;1.73;;;5.20;99.90;;;;;;5100406;28;20177;-76
2022/01/05 09:22:11;;;;;;;5.20;1.77;;;5.30;99.90;;;;;;5057339;28;20232;-74
2022/01/05 09:24:38;;;;;;;5.27;1.63;;;5.30;99.90;;;;;;5054213;28;20180;-78
2022/01/05 09:27:06;;;;;;;5.67;1.90;;;5.40;99.90;;;;;;5052078;28;20198;-77
2022/01/05 09:29:33;;;;;;;6.43;2.00;;;5.40;99.90;;;;;;5056257;28;20187;-78
2022/01/05 09:32:06;;;;;;;7.87;2.20;;;5.40;99.90;;;;;;5058301;28;20207;-77
2022/01/05 09:34:35;;;;;;;4.93;1.87;;;5.50;99.90;;;;;;5051502;28;20200;-78
2022/01/05 09:37:08;;;;;;;5.90;2.10;;;5.50;99.90;;;;;;5053090;28;20189;-77
2022/01/05 09:42:22;;;;;;;7.13;2.10;;;5.50;99.90;;;;;;5073866;28;20466;-78
2022/01/05 09:44:49;;;;;;;8.43;2.00;;;5.50;99.90;;;;;;5095307;28;20200;-76
2022/01/05 09:47:29;;;;;;;5.03;1.63;;;5.50;99.90;;;;;;5054411;28;20185;-77
2022/01/05 09:50:03;;;;;;;6.47;2.00;;;5.60;99.90;;;;;;5072528;28;20188;-77
2022/01/05 09:52:31;;;;;;;5.10;2.00;;;5.60;99.90;;;;;;5057924;28;20212;-78
2022/01/05 09:54:57;;;;;;;4.50;1.70;;;5.60;99.90;;;;;;5053664;28;20251;-75
2022/01/05 09:57:24;;;;;;;4.40;1.80;;;5.60;99.90;;;;;;5058008;28;20214;-77
2022/01/05 09:59:51;;;;;;;3.20;1.60;;;5.60;99.90;;;;;;5055597;28;20289;-78
2022/01/05 10:02:21;;;;;;;6.07;1.87;;;5.70;99.90;;;;;;5055484;28;20185;-78
2022/01/05 10:04:47;;;;;;;6.77;1.87;;;5.70;99.90;;;;;;5046687;28;20344;-77
2022/01/05 10:07:15;;;;;;;4.47;1.57;;;5.70;99.90;;;;;;5056077;28;20187;-76
2022/01/05 10:09:43;;;;;;;5.23;1.60;;;5.70;99.90;;;;;;5056079;28;20261;-79
2022/01/05 10:12:13;;;;;;;4.60;1.87;;;5.80;99.90;;;;;;5088527;28;20295;-77
2022/01/05 10:14:45;;;;;;;5.47;1.73;;;5.80;99.90;;;;;;5061564;28;20310;-77
2022/01/05 10:17:13;;;;;;;5.77;1.97;;;5.80;99.90;;;;;;5053998;28;20183;-77
2022/01/05 10:19:42;;;;;;;6.17;1.60;;;5.80;99.90;;;;;;5056148;28;20207;-78
2022/01/05 10:22:43;;;;;;;8.47;2.10;;;5.90;99.90;;;;;;5058082;28;20181;-79
2022/01/05 10:25:18;;;;;;;7.03;2.03;;;5.90;99.90;;;;;;5056616;28;20204;-78
2022/01/05 10:28:03;;;;;;;8.27;1.83;;;6.00;99.90;;;;;;5057937;28;20173;-76
2022/01/05 10:30:40;;;;;;;9.23;2.20;;;6.00;99.90;;;;;;5055996;28;20391;-78
2022/01/05 10:33:07;;;;;;;5.87;1.93;;;6.00;99.90;;;;;;5057489;28;20199;-71
2022/01/05 10:35:38;;;;;;;8.50;2.23;;;6.10;99.90;;;;;;5063881;28;20231;-75
2022/01/05 10:38:08;;;;;;;8.80;2.23;;;6.10;99.90;;;;;;5059592;28;20357;-77
2022/01/05 10:40:38;;;;;;;6.30;1.80;;;6.10;99.90;;;;;;5062472;28;20195;-76
2022/01/05 10:43:10;;;;;;;8.23;2.00;;;6.10;99.90;;;;;;5057692;28;20176;-78
2022/01/05 10:45:46;;;;;;;8.40;2.10;;;6.20;99.90;;;;;;5059531;28;20196;-74
2022/01/05 10:48:13;;;;;;;7.50;2.00;;;6.20;99.90;;;;;;5052162;28;20179;-74
2022/01/05 10:50:42;;;;;;;4.20;1.67;;;6.20;99.90;;;;;;5048457;28;20210;-77
2022/01/05 10:53:19;;;;;;;6.00;1.97;;;6.20;99.90;;;;;;5056255;28;20282;-77
2022/01/05 10:55:48;;;;;;;4.83;1.90;;;6.20;99.90;;;;;;5056248;28;20192;-78
2022/01/05 10:58:17;;;;;;;5.57;2.30;;;6.30;99.90;;;;;;5058733;28;20302;-76
2022/01/05 11:00:45;;;;;;;6.03;2.20;;;6.30;99.90;;;;;;5058794;28;20177;-78
2022/01/05 11:03:38;;;;;;;7.33;2.43;;;6.40;99.90;;;;;;5064461;28;20274;-78
2022/01/05 11:06:13;;;;;;;7.83;1.73;;;6.40;99.90;;;;;;5054732;28;20192;-77
2022/01/05 11:09:09;;;;;;;6.90;1.80;;;6.40;99.90;;;;;;5093111;28;20246;-78
2022/01/05 11:11:37;;;;;;;7.03;2.03;;;6.50;99.90;;;;;;5047960;28;20201;-78
2022/01/05 11:14:12;;;;;;;4.63;1.70;;;6.50;99.90;;;;;;5056776;28;20208;-78
2022/01/05 11:16:43;;;;;;;6.73;2.20;;;6.50;99.90;;;;;;5055181;28;20406;-77
2022/01/05 11:19:23;;;;;;;6.67;2.07;;;6.50;99.90;;;;;;5051921;28;20176;-78
2022/01/05 11:22:14;;;;;;;6.23;2.40;;;6.50;99.90;;;;;;5055818;28;20178;-77
2022/01/05 11:24:51;;;;;;;6.33;2.20;;;6.50;99.90;;;;;;5052729;28;20200;-75
2022/01/05 11:27:17;;;;;;;9.27;2.43;;;6.60;99.90;;;;;;5091144;28;20172;-76
2022/01/05 11:29:44;;;;;;;6.03;2.03;;;6.60;99.90;;;;;;5056623;28;20176;-75
2022/01/05 11:32:13;;;;;;;4.73;2.03;;;6.70;99.90;;;;;;5059188;28;20226;-78
2022/01/05 11:34:39;;;;;;;7.07;2.30;;;6.70;99.90;;;;;;5062532;28;20200;-78
2022/01/05 11:37:09;;;;;;;6.83;2.40;;;6.70;99.90;;;;;;5060712;28;20207;-78
2022/01/05 11:39:45;;;;;;;6.27;2.30;;;6.80;99.90;;;;;;5093402;28;20175;-79
2022/01/05 11:42:15;;;;;;;5.77;2.00;;;6.80;99.90;;;;;;5062234;28;20181;-74
2022/01/05 11:44:46;;;;;;;7.80;2.20;;;6.80;99.90;;;;;;5059035;28;20196;-79
2022/01/05 11:47:32;;;;;;;7.07;2.00;;;6.90;99.90;;;;;;5058649;28;20220;-78
2022/01/05 11:50:12;;;;;;;4.67;2.03;;;6.90;99.90;;;;;;5060077;28;20181;-78
2022/01/05 11:53:07;;;;;;;8.20;2.10;;;7.00;99.90;;;;;;5093324;28;20197;-77
2022/01/05 11:56:01;;;;;;;6.50;2.20;;;7.00;99.90;;;;;;5061808;28;20193;-79
2022/01/05 11:58:28;;;;;;;6.27;2.30;;;7.00;99.90;;;;;;5062190;28;20288;-73
2022/01/05 12:01:17;;;;;;;7.20;2.37;;;7.10;99.90;;;;;;5062295;28;20177;-76
2022/01/05 12:03:49;;;;;;;6.37;1.93;;;7.10;99.90;;;;;;5057130;28;20214;-79
2022/01/05 12:06:17;;;;;;;6.07;2.20;;;7.10;99.90;;;;;;5091717;28;20196;-76
2022/01/05 12:08:43;;;;;;;5.53;2.33;;;7.20;99.90;;;;;;5058542;28;20180;-76
2022/01/05 12:11:33;;;;;;;4.57;2.13;;;7.10;99.90;;;;;;5058400;28;20226;-79
2022/01/05 12:14:04;;;;;;;6.57;2.53;;;7.20;99.90;;;;;;5061070;28;20212;-78
2022/01/05 12:16:49;;;;;;;8.03;2.43;;;7.30;99.90;;;;;;5058366;28;20230;-77
2022/01/05 12:19:15;;;;;;;8.93;2.33;;;7.40;99.90;;;;;;5055788;28;20168;-72
2022/01/05 12:21:44;;;;;;;8.10;2.33;;;7.50;99.90;;;;;;5058299;28;20184;-72
2022/01/05 12:24:12;;;;;;;5.87;2.23;;;7.70;99.90;;;;;;5051691;28;20208;-71
2022/01/05 12:26:41;;;;;;;7.67;2.40;;;7.80;99.90;;;;;;5058154;28;20184;-74
2022/01/05 12:29:07;;;;;;;7.87;2.53;;;7.90;99.90;;;;;;5059389;28;20216;-69
2022/01/05 12:31:54;;;;;;;6.70;2.43;;;7.90;99.90;;;;;;5058242;28;20191;-74
2022/01/05 12:34:57;;;;;;;9.13;2.87;;;7.90;99.90;;;;;;5056890;28;20228;-73
2022/01/05 12:37:44;;;;;;;6.17;2.27;;;7.80;99.90;;;;;;5069464;28;20185;-74
2022/01/05 12:40:35;;;;;;;5.17;2.10;;;7.80;99.90;;;;;;5060715;28;20272;-74
2022/01/05 12:43:13;;;;;;;6.67;2.40;;;7.70;99.90;;;;;;5056134;28;20180;-71
2022/01/05 12:46:03;;;;;;;7.63;2.50;;;7.60;99.90;;;;;;5070169;28;20306;-75
2022/01/05 12:48:39;;;;;;;4.40;2.60;;;7.50;99.90;;;;;;5054071;28;20196;-71
2022/01/05 12:51:17;;;;;;;6.67;2.10;;;7.50;99.90;;;;;;5047843;28;20177;-73
2022/01/05 12:54:05;;;;;;;6.97;2.70;;;7.40;99.90;;;;;;5052591;28;20277;-74
2022/01/05 12:56:44;;;;;;;7.13;2.60;;;7.40;99.90;;;;;;5054964;28;20250;-75
2022/01/05 12:59:29;;;;;;;5.70;2.50;;;7.40;99.90;;;;;;5052522;28;20185;-72
2022/01/05 13:02:00;;;;;;;9.50;2.80;;;7.40;99.90;;;;;;5052023;28;20180;-76
2022/01/05 13:04:26;;;;;;;8.07;2.60;;;7.40;99.90;;;;;;5056368;28;20182;-76
2022/01/05 13:06:59;;;;;;;8.60;2.40;;;7.40;99.90;;;;;;5049101;28;20187;-77
2022/01/05 13:09:36;;;;;;;6.57;2.27;;;7.50;99.90;;;;;;5054939;28;20216;-76